Terminal Aerodrome Forecast
Issued by NWS Brownsville, TX

Home | Current Version | Previous Version | Text Only | Print | Product List | Glossary On
Versions: 1 2 3 4 5 6 7 8 9 10 11 12 13 14 15 16 17
000
FTUS44 KBRO 311135
TAFHRL
TAF
KHRL 311135Z 3112/0112 11006KT 5SM BR FEW025
     FM311400 15008KT P6SM FEW025 BKN090
     FM311600 16020G25KT P6SM BKN050
     FM010300 15010KT P6SM BKN030
     FM010600 16007KT P6SM VCSH BKN025=

USA.gov is the U.S. government's official web portal to all federal, state and local government web resources and services.